Time;durP1;ratioP1;P1;durP2;ratioP2;P2;SDS_P1;SDS_P2;PMS_P1;PMS_P2;Temp;Humidity;BMP_temperature;BMP_pressure;BME280_temperature;BME280_humidity;BME280_pressure;Samples;Min_cycle;Max_cycle;Signal;HPM_P1;HPM_P2
2023/07/03 00:02:00;;;;;;;14.53;5.87;;;14.30;1.00;;;;;;5089550;28;20389;-72
2023/07/03 00:05:16;;;;;;;;;;;;;;;;;;;;;
2023/07/03 00:07:45;;;;;;;8.50;5.50;;;14.20;1.00;;;;;;5091733;28;20432;-69
2023/07/03 00:10:21;;;;;;;11.63;4.53;;;14.20;1.00;;;;;;5089293;28;20377;-71
2023/07/03 00:12:47;;;;;;;10.40;5.13;;;14.20;1.00;;;;;;5098400;28;20398;-70
2023/07/03 00:15:17;;;;;;;7.30;4.60;;;14.10;1.00;;;;;;5110392;28;20387;-72
2023/07/03 00:17:46;;;;;;;8.03;5.20;;;14.10;1.00;;;;;;5092883;28;20429;-71
2023/07/03 00:20:18;;;;;;;11.50;4.83;;;14.00;1.00;;;;;;5091414;28;20386;-71
2023/07/03 00:22:47;;;;;;;8.10;5.10;;;14.00;1.00;;;;;;5102343;28;20639;-72
2023/07/03 00:25:17;;;;;;;9.73;4.53;;;14.00;1.00;;;;;;5089799;28;20388;-73
2023/07/03 00:28:08;;;;;;;12.97;5.53;;;14.10;1.00;;;;;;5090167;28;20395;-74
2023/07/03 00:30:38;;;;;;;5.80;4.33;;;13.90;1.00;;;;;;5088845;28;20412;-72
2023/07/03 00:33:03;;;;;;;8.10;5.10;;;13.80;1.00;;;;;;5089792;28;20435;-72
2023/07/03 00:35:56;;;;;;;5.27;4.70;;;13.70;1.00;;;;;;5089480;28;20458;-73
2023/07/03 00:41:44;;;;;;;7.57;4.63;;;13.60;1.00;;;;;;5027727;28;20462;-74
2023/07/03 00:44:36;;;;;;;;;;;;;;;;;;;;;
2023/07/03 00:47:13;;;;;;;12.40;4.90;;;13.70;1.00;;;;;;5069484;28;20552;-73
2023/07/03 00:49:43;;;;;;;11.20;5.73;;;13.60;1.00;;;;;;5103959;28;20423;-73
2023/07/03 00:52:14;;;;;;;5.43;4.20;;;13.60;1.00;;;;;;5088435;28;20402;-74
2023/07/03 00:54:40;;;;;;;11.90;4.70;;;13.60;1.00;;;;;;5089724;28;20404;-73
2023/07/03 00:57:33;;;;;;;;;;;;;;;;;;;;;
2023/07/03 01:00:22;;;;;;;15.33;4.30;;;13.40;1.00;;;;;;5088961;28;20420;-74
2023/07/03 01:09:58;;;;;;;10.23;4.60;;;13.40;1.00;;;;;;4992214;28;20429;-73
2023/07/03 01:12:26;;;;;;;7.83;3.97;;;13.40;1.00;;;;;;4972133;28;20540;-73
2023/07/03 01:14:56;;;;;;;4.80;4.17;;;13.30;1.00;;;;;;5084270;28;20392;-71
2023/07/03 01:17:23;;;;;;;7.20;3.97;;;13.30;1.00;;;;;;5088759;28;20423;-73
2023/07/03 01:19:49;;;;;;;8.30;3.70;;;13.30;1.00;;;;;;5071226;28;20363;-72
2023/07/03 01:25:49;;;;;;;11.03;4.50;;;13.20;1.00;;;;;;5088487;28;20384;-73
2023/07/03 01:28:18;;;;;;;5.23;4.00;;;13.20;1.00;;;;;;5071275;28;20976;-71
2023/07/03 01:30:46;;;;;;;5.43;3.93;;;13.30;1.00;;;;;;5088004;28;20505;-72
2023/07/03 01:37:05;;;;;;;7.90;3.73;;;13.30;1.00;;;;;;5088732;28;20591;-75
2023/07/03 01:39:31;;;;;;;11.83;4.43;;;13.30;1.00;;;;;;5090615;28;20471;-71
2023/07/03 01:42:02;;;;;;;6.33;4.43;;;13.30;1.00;;;;;;5070957;28;20664;-72
2023/07/03 01:44:28;;;;;;;9.67;4.83;;;13.20;1.00;;;;;;5088125;28;20367;-73
2023/07/03 01:47:07;;;;;;;7.53;3.87;;;13.20;1.00;;;;;;5095390;28;20390;-73
2023/07/03 01:49:33;;;;;;;8.90;4.33;;;13.30;1.00;;;;;;5097530;28;20225;-69
2023/07/03 01:52:15;;;;;;;4.17;3.77;;;13.30;1.00;;;;;;5087610;28;20533;-72
2023/07/03 01:54:49;;;;;;;10.10;4.00;;;13.30;1.00;;;;;;5071369;28;20440;-70
2023/07/03 02:00:45;;;;;;;5.10;3.50;;;13.30;1.00;;;;;;5041233;28;20375;-70
2023/07/03 02:04:02;;;;;;;;;;;;;;;;;;;;;
2023/07/03 02:06:36;;;;;;;8.67;6.00;;;13.30;1.00;;;;;;5039211;28;20403;-73
2023/07/03 02:09:07;;;;;;;5.93;3.73;;;13.20;1.00;;;;;;5080716;28;20403;-70
2023/07/03 02:11:34;;;;;;;7.37;4.60;;;13.20;1.00;;;;;;5069928;28;20503;-73
2023/07/03 02:14:02;;;;;;;7.30;3.50;;;13.20;1.00;;;;;;5087674;28;20482;-72
2023/07/03 02:16:34;;;;;;;8.53;3.67;;;13.30;1.00;;;;;;5091290;28;20377;-73
2023/07/03 02:19:13;;;;;;;5.37;3.73;;;13.30;1.00;;;;;;5108191;28;20372;-72
2023/07/03 02:21:40;;;;;;;8.83;3.90;;;13.30;1.00;;;;;;5107241;28;20443;-71
2023/07/03 02:24:08;;;;;;;6.50;3.67;;;13.30;1.00;;;;;;5098468;28;20414;-72
2023/07/03 02:26:34;;;;;;;3.40;2.83;;;13.30;1.00;;;;;;5089265;28;20382;-70
2023/07/03 02:29:02;;;;;;;7.80;3.60;;;13.40;1.00;;;;;;5107995;28;20359;-72
2023/07/03 02:31:47;;;;;;;5.70;3.67;;;13.40;1.00;;;;;;5107170;28;20170;-73
2023/07/03 02:34:51;;;;;;;6.27;3.70;;;13.40;1.00;;;;;;5090142;28;20411;-72
2023/07/03 02:37:18;;;;;;;4.30;2.90;;;13.40;1.00;;;;;;5104385;28;20372;-71
2023/07/03 02:39:44;;;;;;;10.23;2.80;;;13.50;1.00;;;;;;5094059;28;20390;-71
2023/07/03 02:42:20;;;;;;;9.73;3.00;;;13.50;1.00;;;;;;5087010;28;20393;-71
2023/07/03 02:44:46;;;;;;;3.37;3.07;;;13.40;1.00;;;;;;5069969;28;20421;-72
2023/07/03 02:47:12;;;;;;;5.37;3.00;;;13.40;1.00;;;;;;5087636;28;20388;-73
2023/07/03 02:49:40;;;;;;;6.10;2.40;;;13.40;1.00;;;;;;5087624;28;20584;-72
2023/07/03 02:52:06;;;;;;;4.00;3.60;;;13.40;1.00;;;;;;5086556;28;20395;-71
2023/07/03 02:54:32;;;;;;;5.43;3.10;;;13.40;1.00;;;;;;5089201;28;20421;-70
2023/07/03 02:56:58;;;;;;;5.57;2.73;;;13.30;1.00;;;;;;5087211;28;20411;-70
2023/07/03 02:59:34;;;;;;;5.90;2.80;;;13.30;1.00;;;;;;5102166;28;20478;-72
2023/07/03 03:05:22;;;;;;;2.70;2.30;;;13.20;1.00;;;;;;5111910;28;20388;-70
2023/07/03 03:07:48;;;;;;;5.30;3.30;;;13.10;1.00;;;;;;5111796;28;20362;-72
2023/07/03 03:10:17;;;;;;;5.77;2.87;;;13.10;1.00;;;;;;5076422;28;20419;-71
2023/07/03 03:13:06;;;;;;;4.00;3.40;;;13.00;1.00;;;;;;5091177;28;20189;-71
2023/07/03 03:15:34;;;;;;;6.10;3.50;;;13.00;1.00;;;;;;5079042;28;20397;-72
2023/07/03 03:18:03;;;;;;;7.50;3.50;;;13.00;1.00;;;;;;5073847;28;20412;-71
2023/07/03 03:20:29;;;;;;;5.63;3.27;;;12.90;1.00;;;;;;5073073;28;20384;-72
2023/07/03 03:22:55;;;;;;;5.80;3.20;;;13.00;1.00;;;;;;5090574;28;20408;-72
2023/07/03 03:25:49;;;;;;;5.60;4.10;;;13.00;1.00;;;;;;5093041;28;20170;-72
2023/07/03 03:28:17;;;;;;;6.83;3.43;;;12.90;1.00;;;;;;5073501;28;20142;-70
2023/07/03 03:30:46;;;;;;;8.00;3.60;;;12.90;1.00;;;;;;5090284;28;20470;-70
2023/07/03 03:33:12;;;;;;;5.53;4.40;;;13.00;1.00;;;;;;5093385;28;20465;-73
2023/07/03 03:35:38;;;;;;;3.80;3.23;;;12.90;1.00;;;;;;5090624;28;20377;-70
2023/07/03 03:38:04;;;;;;;13.23;3.60;;;13.00;1.00;;;;;;5090719;28;20239;-73
2023/07/03 03:40:52;;;;;;;10.17;5.00;;;12.90;1.00;;;;;;5108133;28;20375;-73
2023/07/03 03:43:45;;;;;;;6.10;3.57;;;12.90;1.00;;;;;;5093175;28;20406;-71
2023/07/03 03:46:11;;;;;;;7.53;3.47;;;12.90;1.00;;;;;;5093014;28;20407;-72
2023/07/03 03:48:36;;;;;;;13.03;5.17;;;12.90;1.00;;;;;;5111080;28;20575;-73
2023/07/03 03:51:03;;;;;;;9.43;3.90;;;12.90;1.00;;;;;;5109525;28;20181;-72
2023/07/03 03:53:32;;;;;;;5.60;3.40;;;13.00;1.00;;;;;;5107739;28;20172;-74
2023/07/03 03:55:57;;;;;;;8.30;3.60;;;13.00;1.00;;;;;;5092297;28;20371;-70
2023/07/03 03:58:24;;;;;;;7.13;4.17;;;13.00;1.00;;;;;;5090626;28;20381;-72
2023/07/03 04:00:53;;;;;;;7.50;3.77;;;13.00;1.00;;;;;;5089839;28;20524;-73
2023/07/03 04:03:19;;;;;;;5.80;3.37;;;13.10;1.00;;;;;;5090316;28;20401;-70
2023/07/03 04:05:48;;;;;;;5.10;3.70;;;13.10;1.00;;;;;;5090053;28;20373;-72
2023/07/03 04:08:14;;;;;;;6.30;3.60;;;13.00;1.00;;;;;;5095117;28;20387;-71
2023/07/03 04:10:42;;;;;;;5.07;3.30;;;13.00;1.00;;;;;;5089872;28;20405;-72
2023/07/03 04:13:11;;;;;;;5.10;3.03;;;13.10;1.00;;;;;;5110458;28;20211;-72
2023/07/03 04:15:51;;;;;;;7.70;3.50;;;13.10;1.00;;;;;;5110410;28;20447;-69
2023/07/03 04:18:42;;;;;;;5.33;3.40;;;13.20;1.00;;;;;;5110259;28;20534;-74
2023/07/03 04:21:12;;;;;;;6.87;3.40;;;13.30;1.00;;;;;;5078157;28;20634;-70
2023/07/03 04:23:37;;;;;;;10.23;3.17;;;13.40;1.00;;;;;;5090245;28;20204;-75
2023/07/03 04:29:03;;;;;;;8.13;3.80;;;13.50;1.00;;;;;;5089777;28;20531;-73
2023/07/03 04:31:31;;;;;;;7.97;3.87;;;13.50;1.00;;;;;;5089001;28;20398;-72
2023/07/03 04:33:57;;;;;;;7.13;4.20;;;13.60;1.00;;;;;;5072318;28;20521;-73
2023/07/03 04:36:23;;;;;;;5.57;3.07;;;13.70;1.00;;;;;;5089983;28;20528;-73
2023/07/03 04:38:49;;;;;;;7.30;2.80;;;13.80;1.00;;;;;;5074206;28;20387;-74
2023/07/03 04:41:17;;;;;;;5.27;3.37;;;13.70;1.00;;;;;;5071158;28;20378;-71
2023/07/03 04:46:35;;;;;;;10.10;3.77;;;13.80;1.00;;;;;;5089404;28;20402;-69
2023/07/03 04:49:04;;;;;;;6.47;4.17;;;13.70;1.00;;;;;;5089218;28;20420;-70
2023/07/03 04:51:51;;;;;;;;;;;;;;;;;;;;;
2023/07/03 04:55:11;;;;;;;5.50;3.40;;;13.70;1.00;;;;;;5090262;28;20434;-68
2023/07/03 04:57:41;;;;;;;6.20;3.90;;;13.80;1.00;;;;;;5089023;28;20368;-68
2023/07/03 05:00:16;;;;;;;5.13;3.03;;;14.00;1.00;;;;;;5088601;28;20447;-68
2023/07/03 05:02:47;;;;;;;7.43;4.90;;;14.00;1.00;;;;;;5071770;28;20423;-67
2023/07/03 05:05:15;;;;;;;5.80;3.03;;;14.00;1.00;;;;;;5088932;28;20393;-72
2023/07/03 05:07:42;;;;;;;6.33;3.13;;;14.10;1.00;;;;;;5080517;28;20374;-72
2023/07/03 05:10:10;;;;;;;10.27;3.33;;;14.10;1.00;;;;;;5093288;28;20476;-73
2023/07/03 05:12:37;;;;;;;12.17;4.10;;;14.10;1.00;;;;;;5097298;28;20702;-70
2023/07/03 05:18:22;;;;;;;3.60;3.00;;;14.10;1.00;;;;;;5109261;28;20370;-70
2023/07/03 05:28:33;;;;;;;9.13;3.67;;;14.30;1.00;;;;;;5088829;28;20511;-74
2023/07/03 05:31:44;;;;;;;10.27;3.90;;;14.20;1.00;;;;;;4996339;28;20464;-75
2023/07/03 05:34:27;;;;;;;5.93;3.83;;;14.10;1.00;;;;;;5022499;28;20435;-77
2023/07/03 05:37:04;;;;;;;5.33;3.20;;;14.00;1.00;;;;;;5007836;28;20394;-75
2023/07/03 05:40:14;;;;;;;5.87;3.67;;;13.90;1.00;;;;;;5057491;28;20428;-75
2023/07/03 05:42:48;;;;;;;6.17;3.30;;;13.90;1.00;;;;;;5088156;28;20377;-77
2023/07/03 05:45:33;;;;;;;7.37;3.80;;;13.90;1.00;;;;;;5088296;28;20393;-76
2023/07/03 05:48:57;;;;;;;;;;;;;;;;;;;;;
2023/07/03 05:51:47;;;;;;;8.23;3.33;;;13.90;1.00;;;;;;5107364;28;20435;-77
2023/07/03 05:54:39;;;;;;;9.10;3.57;;;13.90;1.00;;;;;;5105691;28;20473;-76
2023/07/03 05:57:11;;;;;;;8.17;3.73;;;13.90;1.00;;;;;;5108480;28;20407;-75
2023/07/03 06:00:00;;;;;;;9.77;4.20;;;13.90;1.00;;;;;;5108104;28;20384;-76
2023/07/03 06:02:41;;;;;;;6.40;3.93;;;14.00;1.00;;;;;;5107925;28;20343;-75
2023/07/03 06:08:46;;;;;;;;;;;;;;;;;;;;;
2023/07/03 06:14:48;;;;;;;5.90;3.93;;;14.20;23.70;;;;;;5087803;28;20375;-75
2023/07/03 06:17:42;;;;;;;;;;;;;;;;;;;;;
2023/07/03 06:21:05;;;;;;;8.80;4.60;;;14.20;1.00;;;;;;5087001;28;20397;-75
2023/07/03 06:23:54;;;;;;;9.90;3.83;;;14.20;1.00;;;;;;5089497;28;20652;-72
2023/07/03 06:26:51;;;;;;;9.10;3.13;;;14.30;1.00;;;;;;5087616;28;20369;-72
2023/07/03 06:29:47;;;;;;;;;;;;;;;;;;;;;
2023/07/03 06:32:31;;;;;;;6.57;2.83;;;14.40;1.00;;;;;;5086840;28;20466;-73
2023/07/03 06:35:19;;;;;;;7.90;3.07;;;14.30;1.00;;;;;;5087327;28;20359;-73
2023/07/03 06:38:03;;;;;;;9.23;3.43;;;14.30;1.00;;;;;;5087568;28;20435;-72
2023/07/03 06:40:31;;;;;;;8.87;3.00;;;14.30;1.00;;;;;;5088965;28;20420;-72
2023/07/03 06:42:59;;;;;;;9.90;4.30;;;14.40;1.00;;;;;;5087476;28;20408;-75
2023/07/03 06:45:25;;;;;;;8.40;3.10;;;14.50;1.00;;;;;;5087488;28;20370;-73
2023/07/03 06:47:59;;;;;;;8.47;4.03;;;14.60;1.00;;;;;;5069977;28;20391;-73
2023/07/03 06:50:43;;;;;;;10.83;4.73;;;14.70;1.00;;;;;;5097142;28;20404;-73
2023/07/03 06:53:43;;;;;;;8.60;3.23;;;14.80;1.00;;;;;;5107439;28;20412;-71
2023/07/03 06:56:09;;;;;;;6.00;3.80;;;14.90;1.00;;;;;;5106775;28;20364;-75
2023/07/03 07:05:55;;;;;;;11.93;3.83;;;15.10;1.00;;;;;;5046358;28;20480;-71
2023/07/03 07:08:26;;;;;;;11.23;2.97;;;15.20;1.00;;;;;;5026026;28;20421;-73
2023/07/03 07:11:50;;;;;;;;;;;;;;;;;;;;;
2023/07/03 07:14:26;;;;;;;9.80;3.30;;;15.30;1.00;;;;;;5045982;28;20430;-71
2023/07/03 07:17:00;;;;;;;15.67;3.40;;;15.50;1.00;;;;;;5045971;28;20378;-71
2023/07/03 07:19:26;;;;;;;11.73;3.60;;;15.60;1.00;;;;;;5082422;28;20386;-71
2023/07/03 07:22:29;;;;;;;9.40;3.13;;;15.70;1.00;;;;;;5106851;28;20390;-74
2023/07/03 07:25:16;;;;;;;3.90;2.60;;;15.80;1.00;;;;;;5063838;28;20463;-72
2023/07/03 07:27:51;;;;;;;;;;;;;;;;;;;;;
2023/07/03 07:33:45;;;;;;;10.30;4.13;;;16.00;1.00;;;;;;5087206;28;20388;-74
2023/07/03 07:36:12;;;;;;;6.60;3.27;;;16.00;1.00;;;;;;5087185;28;20376;-74
2023/07/03 07:38:44;;;;;;;4.27;2.70;;;16.10;1.00;;;;;;5086655;28;20491;-74
2023/07/03 07:41:11;;;;;;;4.80;2.80;;;16.30;1.00;;;;;;5088897;28;20404;-70
2023/07/03 07:44:01;;;;;;;5.77;2.27;;;16.30;1.00;;;;;;5103629;28;20589;-74
2023/07/03 07:47:05;;;;;;;12.17;3.67;;;16.30;1.00;;;;;;5108747;28;20619;-74
2023/07/03 07:49:35;;;;;;;3.97;3.23;;;16.40;1.00;;;;;;5029705;28;20514;-69
2023/07/03 07:52:01;;;;;;;4.63;2.83;;;16.50;1.00;;;;;;5095897;28;20446;-70
2023/07/03 07:54:27;;;;;;;4.83;3.60;;;16.50;1.00;;;;;;5090516;28;20420;-71
2023/07/03 07:56:53;;;;;;;4.47;2.37;;;16.40;1.00;;;;;;5073142;28;20381;-71
2023/07/03 08:16:57;;;;;;;7.07;2.50;;;17.10;1.00;;;;;;5103000;28;20413;-71
2023/07/03 08:19:25;;;;;;;6.97;2.93;;;17.20;1.00;;;;;;5110487;28;20433;-71
2023/07/03 08:25:21;;;;;;;7.33;2.90;;;17.30;99.90;;;;;;5005489;28;20520;-71
2023/07/03 08:27:47;;;;;;;6.67;2.53;;;17.20;99.90;;;;;;5002813;28;20421;-71
2023/07/03 08:34:02;;;;;;;;;;;;;;;;;;;;;
2023/07/03 08:36:57;;;;;;;7.90;2.57;;;17.00;99.90;;;;;;4954441;28;20409;-75
2023/07/03 08:39:43;;;;;;;5.63;1.87;;;17.30;99.90;;;;;;4993466;28;20422;-73
2023/07/03 08:49:30;;;;;;;10.47;2.33;;;17.70;99.90;;;;;;5028484;28;20417;-69
2023/07/03 08:51:59;;;;;;;9.30;2.60;;;17.70;99.90;;;;;;5020381;28;20628;-69
2023/07/03 09:01:31;;;;;;;3.70;1.80;;;18.30;99.90;;;;;;5047437;28;20482;-72
2023/07/03 09:04:21;;;;;;;4.73;2.07;;;18.40;99.90;;;;;;5074072;28;20660;-71
2023/07/03 09:10:54;;;;;;;9.30;2.33;;;18.30;99.90;;;;;;5090007;28;20407;-74
2023/07/03 09:13:43;;;;;;;2.90;2.50;;;18.40;99.90;;;;;;5075732;28;20452;-73
2023/07/03 09:16:19;;;;;;;5.63;2.13;;;18.40;99.90;;;;;;5071252;28;20432;-74
2023/07/03 09:19:20;;;;;;;3.83;2.10;;;18.60;99.90;;;;;;5088441;28;20407;-73
2023/07/03 09:25:02;;;;;;;5.90;2.10;;;18.70;99.90;;;;;;5030969;28;20531;-70
2023/07/03 09:27:38;;;;;;;;;;;;;;;;;;;;;
2023/07/03 09:30:44;;;;;;;5.40;2.10;;;18.90;99.90;;;;;;5088239;28;20400;-73
2023/07/03 09:43:53;;;;;;;9.40;2.03;;;19.60;99.90;;;;;;4968817;29;20446;-75
2023/07/03 09:46:52;;;;;;;4.80;2.57;;;19.70;99.90;;;;;;4964989;29;20386;-69
2023/07/03 09:49:35;;;;;;;;;;;;;;;;;;;;;
2023/07/03 09:52:23;;;;;;;6.00;2.00;;;19.40;99.90;;;;;;4967341;28;20637;-73
2023/07/03 09:55:13;;;;;;;9.23;2.37;;;19.90;99.90;;;;;;5018005;28;20429;-70
2023/07/03 10:01:00;;;;;;;2.87;1.93;;;20.00;99.90;;;;;;5046372;28;20495;-71
2023/07/03 10:03:51;;;;;;;3.60;1.20;;;20.20;99.90;;;;;;5046954;28;20406;-70
2023/07/03 10:06:28;;;;;;;3.63;1.10;;;20.80;99.90;;;;;;5033649;28;20519;-72
2023/07/03 10:09:03;;;;;;;3.73;1.70;;;20.70;99.90;;;;;;5045467;28;20638;-70
2023/07/03 10:15:31;;;;;;;5.40;1.30;;;21.20;99.90;;;;;;5108289;28;20734;-69
2023/07/03 10:18:31;;;;;;;5.47;1.47;;;21.40;99.90;;;;;;5108046;28;20540;-72
2023/07/03 10:24:42;;;;;;;3.10;1.77;;;21.50;99.90;;;;;;4987944;28;20613;-69
2023/07/03 10:27:08;;;;;;;3.10;1.37;;;22.10;99.90;;;;;;5069758;28;20403;-70
2023/07/03 10:29:41;;;;;;;2.30;1.33;;;22.20;99.90;;;;;;5087908;28;20491;-74
2023/07/03 10:32:14;;;;;;;2.67;1.10;;;22.20;99.90;;;;;;5086998;28;20420;-74
2023/07/03 10:35:21;;;;;;;3.73;1.40;;;22.50;99.90;;;;;;5096015;28;20483;-69
2023/07/03 10:38:19;;;;;;;3.83;1.20;;;22.60;99.90;;;;;;5108017;28;20446;-73
2023/07/03 10:41:33;;;;;;;2.40;2.00;;;21.70;99.90;;;;;;5091402;28;20431;-72
2023/07/03 10:44:11;;;;;;;4.50;1.23;;;21.80;99.90;;;;;;5069842;28;20428;-71
2023/07/03 10:50:06;;;;;;;2.43;1.43;;;21.30;99.90;;;;;;5087309;28;20539;-74
2023/07/03 10:59:28;;;;;;;2.63;1.60;;;20.20;99.90;;;;;;5087619;28;20473;-71
2023/07/03 11:02:32;;;;;;;3.10;1.13;;;20.30;99.90;;;;;;5086116;28;20381;-73
2023/07/03 11:11:55;;;;;;;4.50;1.67;;;21.00;99.90;;;;;;5025037;28;20469;-69
2023/07/03 11:14:58;;;;;;;3.77;1.47;;;20.50;99.90;;;;;;5107169;28;20410;-70
2023/07/03 11:21:24;;;;;;;1.50;1.30;;;21.90;99.90;;;;;;5108985;28;20351;-72
2023/07/03 11:24:22;;;;;;;4.40;2.40;;;22.20;99.90;;;;;;5109242;28;20424;-68
2023/07/03 11:27:22;;;;;;;6.13;2.17;;;22.40;99.90;;;;;;5091274;28;20372;-74
2023/07/03 11:29:48;;;;;;;4.90;1.50;;;22.00;99.90;;;;;;5106997;28;20650;-72
2023/07/03 11:32:25;;;;;;;1.57;1.47;;;21.70;99.90;;;;;;5110218;28;20423;-72
2023/07/03 11:34:55;;;;;;;4.43;1.60;;;21.40;99.90;;;;;;5111204;28;20388;-74
2023/07/03 11:41:24;;;;;;;3.93;1.73;;;20.80;99.90;;;;;;5091869;28;20464;-71
2023/07/03 11:43:50;;;;;;;6.40;3.00;;;21.10;99.90;;;;;;5090897;28;20396;-67
2023/07/03 11:49:54;;;;;;;3.73;1.63;;;21.40;99.90;;;;;;5090691;28;20395;-69
2023/07/03 11:53:15;;;;;;;8.50;1.40;;;22.20;99.90;;;;;;5092031;28;20495;-69
2023/07/03 11:55:44;;;;;;;3.20;1.20;;;22.20;99.90;;;;;;4933077;29;20430;-70
2023/07/03 12:12:40;;;;;;;3.53;1.57;;;21.70;99.90;;;;;;4929755;29;20513;-68
2023/07/03 12:14:54;;;;;;;4.80;1.10;;;21.40;99.90;;;;;;4935096;28;20411;-70
2023/07/03 12:17:24;;;;;;;4.13;1.20;;;21.40;99.90;;;;;;5061157;28;20407;-69
2023/07/03 12:23:55;;;;;;;3.60;1.30;;;20.20;99.90;;;;;;5110402;28;20464;-71
2023/07/03 12:27:00;;;;;;;;;;;;;;;;;;;;;
2023/07/03 12:32:48;;;;;;;7.60;1.50;;;19.20;99.90;;;;;;4931804;29;20487;-69
2023/07/03 12:35:45;;;;;;;3.33;1.70;;;19.10;99.90;;;;;;5008271;28;20432;-69
2023/07/03 12:42:05;;;;;;;4.57;1.60;;;18.80;99.90;;;;;;5002677;28;20451;-71
2023/07/03 12:44:33;;;;;;;12.43;2.17;;;18.80;99.90;;;;;;4992701;28;20430;-72
2023/07/03 12:51:00;;;;;;;6.30;1.90;;;18.90;99.90;;;;;;5086294;28;20508;-73
2023/07/03 12:53:29;;;;;;;7.97;2.37;;;18.80;99.90;;;;;;5084740;28;20447;-72
2023/07/03 12:56:08;;;;;;;3.67;1.47;;;18.90;99.90;;;;;;5108427;28;20427;-68
2023/07/03 12:58:35;;;;;;;3.27;1.53;;;19.10;99.90;;;;;;5109710;28;20615;-71
2023/07/03 13:01:09;;;;;;;3.53;1.60;;;19.00;99.90;;;;;;5108760;28;20392;-71
2023/07/03 13:11:25;;;;;;;4.27;1.60;;;18.90;99.90;;;;;;5107191;28;20430;-69
2023/07/03 13:14:11;;;;;;;3.77;2.13;;;19.00;99.90;;;;;;5102636;28;20651;-70
2023/07/03 13:16:30;;;;;;;3.33;1.67;;;19.00;99.90;;;;;;5098386;28;20654;-72
2023/07/03 13:20:00;;;;;;;4.20;1.77;;;19.30;99.90;;;;;;5109258;28;20400;-71
2023/07/03 13:22:32;;;;;;;4.70;2.27;;;19.30;99.90;;;;;;5071576;28;20421;-69
2023/07/03 13:25:39;;;;;;;;;;;;;;;;;;;;;
2023/07/03 13:28:52;;;;;;;4.70;1.53;;;19.20;99.90;;;;;;5088107;28;20562;-74
2023/07/03 13:31:26;;;;;;;2.40;1.40;;;19.20;99.90;;;;;;5073290;28;20664;-68
2023/07/03 13:34:16;;;;;;;3.00;1.73;;;19.30;99.90;;;;;;5087805;28;20393;-70
2023/07/03 13:46:01;;;;;;;7.53;2.00;;;18.50;99.90;;;;;;5062857;28;20730;-69
2023/07/03 13:48:49;;;;;;;3.40;1.83;;;18.50;99.90;;;;;;5090939;28;20400;-70
2023/07/03 13:52:10;;;;;;;7.33;1.60;;;18.40;99.90;;;;;;5108031;28;20173;-70
2023/07/03 13:54:36;;;;;;;5.57;2.27;;;18.30;99.90;;;;;;5084370;28;20701;-68
2023/07/03 13:57:12;;;;;;;5.00;1.70;;;18.10;99.90;;;;;;5079621;28;20389;-72
2023/07/03 13:59:38;;;;;;;3.37;1.57;;;18.20;99.90;;;;;;5088198;28;20372;-68
2023/07/03 14:02:37;;;;;;;7.10;2.37;;;18.10;99.90;;;;;;5087074;28;20430;-71
2023/07/03 14:05:44;;;;;;;7.27;2.30;;;18.00;99.90;;;;;;5087048;28;20436;-72
2023/07/03 14:08:22;;;;;;;4.10;2.00;;;17.90;99.90;;;;;;5094146;28;20414;-73
2023/07/03 14:14:20;;;;;;;4.03;2.20;;;17.70;99.90;;;;;;5027270;28;20654;-72
2023/07/03 14:17:17;;;;;;;;;;;;;;;;;;;;;
2023/07/03 14:19:44;;;;;;;3.90;1.60;;;17.70;99.90;;;;;;5026070;28;20415;-72
2023/07/03 14:22:38;;;;;;;2.30;1.77;;;17.60;99.90;;;;;;5013073;28;20470;-71
2023/07/03 14:25:07;;;;;;;6.93;2.37;;;17.40;99.90;;;;;;5030380;28;20427;-68
2023/07/03 14:31:41;;;;;;;6.50;1.77;;;17.60;99.90;;;;;;5086806;28;20407;-69
2023/07/03 14:34:50;;;;;;;4.07;1.73;;;17.60;99.90;;;;;;5072351;28;20415;-69
2023/07/03 14:37:16;;;;;;;7.43;2.40;;;17.70;99.90;;;;;;5087258;28;20510;-72
2023/07/03 14:40:11;;;;;;;11.30;1.93;;;17.70;99.90;;;;;;5102667;28;20951;-71
2023/07/03 14:43:31;;;;;;;;;;;;;;;;;;;;;
2023/07/03 14:46:42;;;;;;;4.87;1.60;;;17.30;99.90;;;;;;5107925;28;20400;-69
2023/07/03 14:48:56;;;;;;;;;;;;;;;;;;;;;
2023/07/03 14:51:28;;;;;;;3.37;1.60;;;17.30;99.90;;;;;;5086357;28;20478;-70
2023/07/03 14:54:10;;;;;;;4.90;2.00;;;17.20;99.90;;;;;;5095982;28;20439;-69
2023/07/03 14:57:40;;;;;;;3.00;1.70;;;17.40;99.90;;;;;;5114161;28;20367;-70
2023/07/03 15:03:56;;;;;;;4.60;1.50;;;17.70;99.90;;;;;;4988947;28;20430;-69
2023/07/03 15:10:41;;;;;;;4.03;1.50;;;16.90;99.90;;;;;;4992764;28;20456;-71
2023/07/03 15:13:15;;;;;;;1.80;1.70;;;16.60;99.90;;;;;;4983454;28;20532;-69
2023/07/03 15:16:24;;;;;;;1.90;1.30;;;16.30;99.90;;;;;;4993170;28;20554;-71
2023/07/03 15:19:29;;;;;;;8.50;1.90;;;16.10;99.90;;;;;;4990250;28;20413;-70
2023/07/03 15:22:18;;;;;;;1.60;1.27;;;16.00;99.90;;;;;;4992861;28;20419;-69
2023/07/03 15:24:52;;;;;;;2.30;1.30;;;15.80;99.90;;;;;;4992555;28;20432;-69
2023/07/03 15:27:37;;;;;;;2.37;1.33;;;15.50;99.90;;;;;;5018015;28;20386;-70
2023/07/03 15:30:03;;;;;;;2.60;1.80;;;15.50;99.90;;;;;;5044987;28;20419;-69
2023/07/03 15:32:58;;;;;;;2.13;1.67;;;15.40;99.90;;;;;;5093020;28;20420;-70
2023/07/03 15:35:56;;;;;;;;;;;;;;;;;;;;;
2023/07/03 15:38:39;;;;;;;2.53;1.50;;;15.50;99.90;;;;;;5107114;28;20396;-71
2023/07/03 15:41:54;;;;;;;1.50;1.40;;;15.60;99.90;;;;;;5091796;28;20401;-71
2023/07/03 15:44:37;;;;;;;4.80;1.33;;;15.70;99.90;;;;;;5012281;28;20466;-70
2023/07/03 15:48:07;;;;;;;;;;;;;;;;;;;;;
2023/07/03 15:50:57;;;;;;;3.43;1.50;;;16.00;99.90;;;;;;5048018;28;20467;-69
2023/07/03 15:53:24;;;;;;;1.83;1.43;;;16.20;99.90;;;;;;5094606;28;20428;-70
2023/07/03 15:56:44;;;;;;;2.30;1.70;;;16.20;99.90;;;;;;5092851;28;20403;-68
2023/07/03 16:00:07;;;;;;;6.20;1.57;;;16.30;99.90;;;;;;5052854;28;20529;-69
2023/07/03 16:03:15;;;;;;;7.07;1.33;;;16.20;99.90;;;;;;5008532;28;20432;-70
2023/07/03 16:05:41;;;;;;;3.23;1.83;;;16.40;99.90;;;;;;5091036;28;20365;-70
2023/07/03 16:11:09;;;;;;;2.60;1.47;;;16.50;99.90;;;;;;5108906;28;20421;-69
2023/07/03 16:17:36;;;;;;;1.97;1.37;;;16.70;99.90;;;;;;5047831;28;20395;-68
2023/07/03 16:20:27;;;;;;;;;;;;;;;;;;;;;
2023/07/03 16:23:04;;;;;;;3.63;1.77;;;16.70;99.90;;;;;;5008317;28;20424;-71
2023/07/03 16:26:07;;;;;;;4.47;1.33;;;16.90;99.90;;;;;;5042861;28;20413;-69
2023/07/03 16:29:06;;;;;;;4.30;1.30;;;17.30;99.90;;;;;;5072105;28;20408;-69
2023/07/03 16:32:23;;;;;;;3.40;1.60;;;17.40;99.90;;;;;;5088468;28;20423;-70
2023/07/03 16:35:08;;;;;;;1.93;1.60;;;17.40;99.90;;;;;;4988385;28;20428;-71
2023/07/03 16:37:59;;;;;;;2.60;1.53;;;17.50;99.90;;;;;;5004805;28;20480;-69
2023/07/03 16:41:10;;;;;;;;;;;;;;;;;;;;;
2023/07/03 16:44:02;;;;;;;4.27;2.17;;;17.60;99.90;;;;;;5109439;28;20565;-68
2023/07/03 16:47:11;;;;;;;;;;;;;;;;;;;;;
2023/07/03 16:49:54;;;;;;;2.00;1.30;;;17.50;99.90;;;;;;5108993;28;20434;-69
2023/07/03 16:56:17;;;;;;;7.10;2.10;;;17.50;99.90;;;;;;5004664;28;20516;-69
2023/07/03 17:03:30;;;;;;;4.23;1.53;;;17.50;99.90;;;;;;4906334;29;20408;-71
2023/07/03 17:09:20;;;;;;;5.77;1.73;;;17.10;99.90;;;;;;4901868;29;20619;-76
2023/07/03 17:11:58;;;;;;;14.33;2.17;;;15.80;99.90;;;;;;4914360;29;20447;-70
2023/07/03 17:14:44;;;;;;;2.03;1.70;;;15.30;99.90;;;;;;5096103;28;20406;-68
2023/07/03 17:17:39;;;;;;;;;;;;;;;;;;;;;
2023/07/03 17:20:09;;;;;;;2.70;1.77;;;14.50;99.90;;;;;;5107615;28;20438;-74
2023/07/03 17:22:55;;;;;;;2.00;1.60;;;14.40;99.90;;;;;;5109155;28;20391;-70
2023/07/03 17:26:00;;;;;;;;;;;;;;;;;;;;;
2023/07/03 17:28:30;;;;;;;4.83;4.00;;;14.30;99.90;;;;;;5092804;28;20586;-70
2023/07/03 17:34:35;;;;;;;2.63;1.40;;;14.10;99.90;;;;;;5088236;28;20628;-69
2023/07/03 17:37:04;;;;;;;2.00;1.80;;;14.20;99.90;;;;;;5049095;28;20392;-74
2023/07/03 17:39:48;;;;;;;2.23;2.03;;;14.30;99.90;;;;;;5098382;28;20405;-75
2023/07/03 17:42:14;;;;;;;4.60;2.00;;;14.30;99.90;;;;;;5087991;28;20384;-74
2023/07/03 17:44:40;;;;;;;3.97;2.73;;;14.30;99.90;;;;;;5088891;28;20400;-75
2023/07/03 17:47:12;;;;;;;2.13;1.80;;;14.30;99.90;;;;;;5106580;28;20387;-75
2023/07/03 17:50:14;;;;;;;1.97;1.77;;;14.30;99.90;;;;;;5091102;28;20391;-69
2023/07/03 17:59:09;;;;;;;7.67;2.50;;;14.50;1.00;;;;;;5067247;28;20473;-73
2023/07/03 18:05:32;;;;;;;5.17;2.17;;;14.60;1.00;;;;;;5096621;28;20634;-78
2023/07/03 18:08:26;;;;;;;5.20;2.43;;;14.50;1.00;;;;;;5108575;28;20399;-68
2023/07/03 18:14:29;;;;;;;3.50;1.80;;;14.60;99.90;;;;;;5087862;28;20419;-68
2023/07/03 18:17:04;;;;;;;4.77;2.20;;;14.60;99.90;;;;;;5018520;28;20485;-69
2023/07/03 18:19:30;;;;;;;2.77;2.10;;;14.60;99.90;;;;;;5084093;28;20437;-71
2023/07/03 18:21:59;;;;;;;6.83;1.90;;;14.60;99.90;;;;;;5088779;28;20808;-70
2023/07/03 18:27:23;;;;;;;6.60;1.90;;;14.60;99.90;;;;;;5083329;28;20461;-71
2023/07/03 18:29:54;;;;;;;3.67;2.03;;;14.60;99.90;;;;;;5080011;28;20420;-72
2023/07/03 18:32:57;;;;;;;4.40;1.83;;;14.50;99.90;;;;;;5087811;28;20451;-69
2023/07/03 18:35:39;;;;;;;5.37;2.30;;;14.50;99.90;;;;;;5090753;28;20422;-75
2023/07/03 18:38:05;;;;;;;4.30;1.80;;;14.60;99.90;;;;;;5092863;28;20400;-70
2023/07/03 18:44:28;;;;;;;2.23;1.80;;;14.50;99.90;;;;;;4991485;28;20250;-68
2023/07/03 18:47:09;;;;;;;4.50;1.97;;;14.50;99.90;;;;;;4992022;28;20424;-75